Time,TemperatureF,DewpointF,PressureIn,WindDirection,WindDirectionDegrees,WindSpeedMPH,WindSpeedGustMPH,Humidity,HourlyPrecipIn,Conditions,Clouds,dailyrainin,SoftwareType,DateUTC
2013-06-17 00:02:00,62.0,62.0,-100.00,NNE,20,0.0,0.0,98,0.00,,,-99.99,,2013-06-17 05:02:00,
2013-06-17 00:12:00,61.0,61.0,-100.00,NNE,15,1.0,1.0,99,0.00,,,-99.99,,2013-06-17 05:12:00,
2013-06-17 00:22:00,60.0,60.0,-100.00,NNE,15,1.0,1.0,99,0.00,,,-99.99,,2013-06-17 05:22:00,
2013-06-17 00:33:00,60.0,60.0,-100.00,North,350,0.0,1.0,99,0.00,,,-99.99,,2013-06-17 05:33:00,
2013-06-17 00:44:00,60.0,60.0,-100.00,East,80,0.0,0.0,99,0.00,,,-99.99,,2013-06-17 05:44:00,
2013-06-17 00:53:00,60.0,60.0,-100.00,East,100,0.0,0.0,99,0.00,,,-99.99,,2013-06-17 05:53:00,
2013-06-17 01:02:00,60.0,60.0,-100.00,East,100,0.0,0.0,99,0.00,,,-99.99,,2013-06-17 06:02:00,
2013-06-17 01:12:00,60.0,60.0,-100.00,East,100,0.0,0.0,99,0.00,,,-99.99,,2013-06-17 06:12:00,
2013-06-17 01:22:00,59.0,59.0,-100.00,East,100,0.0,0.0,99,0.00,,,-99.99,,2013-06-17 06:22:00,
2013-06-17 01:33:00,59.0,59.0,-100.00,East,100,0.0,0.0,99,0.00,,,-99.99,,2013-06-17 06:33:00,
2013-06-17 01:43:00,58.0,58.0,-100.00,ENE,75,0.0,1.0,99,0.00,,,-99.99,,2013-06-17 06:43:00,
2013-06-17 01:53:00,58.0,58.0,-100.00,ENE,75,0.0,1.0,99,0.00,,,-99.99,,2013-06-17 06:53:00,
2013-06-17 02:02:00,57.0,57.0,-100.00,ENE,75,0.0,0.0,99,0.00,,,-99.99,,2013-06-17 07:02:00,
2013-06-17 02:12:00,57.0,57.0,-100.00,ENE,75,0.0,1.0,99,0.00,,,-99.99,,2013-06-17 07:12:00,
2013-06-17 02:22:00,57.0,57.0,-100.00,ENE,75,0.0,1.0,99,0.00,,,-99.99,,2013-06-17 07:22:00,
2013-06-17 02:33:00,57.0,57.0,-100.00,ENE,75,0.0,0.0,99,0.00,,,-99.99,,2013-06-17 07:33:00,
2013-06-17 02:42:00,57.0,57.0,-100.00,North,-999,-999.0,-999.0,99,0.00,,,-99.99,,2013-06-17 07:42:00,
2013-06-17 02:52:00,57.0,57.0,-100.00,ENE,75,0.0,0.0,99,0.00,,,-99.99,,2013-06-17 07:52:00,
2013-06-17 03:01:00,56.0,56.0,-100.00,ENE,75,0.0,1.0,99,0.00,,,-99.99,,2013-06-17 08:01:00,
2013-06-17 03:22:00,57.0,57.0,-100.00,SW,225,2.0,3.0,99,0.00,,,-99.99,,2013-06-17 08:22:00,
2013-06-17 03:33:00,57.0,57.0,-100.00,SW,235,2.0,3.0,99,0.00,,,-99.99,,2013-06-17 08:33:00,
2013-06-17 04:11:00,57.0,57.0,-100.00,SSW,195,0.0,0.0,99,0.00,,,-99.99,,2013-06-17 09:11:00,
2013-06-17 04:22:00,57.0,57.0,-100.00,South,180,0.0,1.0,99,0.00,,,-99.99,,2013-06-17 09:22:00,
2013-06-17 04:34:00,56.0,56.0,-100.00,SW,225,2.0,2.0,99,0.00,,,-99.99,,2013-06-17 09:34:00,
2013-06-17 04:43:00,57.0,57.0,-100.00,SSW,200,0.0,2.0,99,0.00,,,-99.99,,2013-06-17 09:43:00,
2013-06-17 04:52:00,56.0,56.0,-100.00,WSW,245,2.0,2.0,99,0.00,,,-99.99,,2013-06-17 09:52:00,
2013-06-17 05:02:00,56.0,56.0,-100.00,SW,230,2.0,4.0,99,0.00,,,-99.99,,2013-06-17 10:02:00,
2013-06-17 05:12:00,56.0,56.0,-100.00,South,180,0.0,1.0,99,0.00,,,-99.99,,2013-06-17 10:12:00,
2013-06-17 05:22:00,56.0,56.0,-100.00,SSW,200,0.0,1.0,99,0.00,,,-99.99,,2013-06-17 10:22:00,
2013-06-17 05:33:00,56.0,56.0,-100.00,SW,235,1.0,2.0,99,0.00,,,-99.99,,2013-06-17 10:33:00,
2013-06-17 05:43:00,56.0,56.0,-100.00,SW,215,1.0,2.0,99,0.00,,,-99.99,,2013-06-17 10:43:00,
2013-06-17 05:53:00,55.0,55.0,-100.00,SW,230,4.0,4.0,99,0.00,,,-99.99,,2013-06-17 10:53:00,
2013-06-17 06:02:00,55.0,55.0,-100.00,WSW,250,4.0,5.0,99,0.00,,,-99.99,,2013-06-17 11:02:00,
2013-06-17 06:12:00,56.0,56.0,-100.00,WSW,250,2.0,6.0,99,0.00,,,-99.99,,2013-06-17 11:12:00,
2013-06-17 06:23:00,56.0,56.0,-100.00,WSW,240,2.0,5.0,99,0.00,,,-99.99,,2013-06-17 11:23:00,
2013-06-17 06:33:00,57.0,57.0,-100.00,SW,235,3.0,4.0,99,0.00,,,-99.99,,2013-06-17 11:33:00,
2013-06-17 06:43:00,57.0,57.0,-100.00,SW,235,1.0,2.0,99,0.00,,,-99.99,,2013-06-17 11:43:00,
2013-06-17 06:53:00,57.0,57.0,-100.00,SW,225,3.0,4.0,99,0.00,,,-99.99,,2013-06-17 11:53:00,
2013-06-17 07:02:00,57.0,57.0,-100.00,WSW,240,2.0,4.0,99,0.00,,,-99.99,,2013-06-17 12:02:00,
2013-06-17 07:22:00,59.0,59.0,-100.00,WSW,240,2.0,2.0,99,0.00,,,-99.99,,2013-06-17 12:22:00,
2013-06-17 07:33:00,60.0,60.0,-100.00,SW,230,2.0,3.0,99,0.00,,,-99.99,,2013-06-17 12:33:00,
2013-06-17 07:43:00,61.0,60.0,-100.00,WSW,240,3.0,4.0,94,0.00,,,-99.99,,2013-06-17 12:43:00,
2013-06-17 07:53:00,62.0,60.0,-100.00,WSW,250,4.0,6.0,92,0.00,,,-99.99,,2013-06-17 12:53:00,
2013-06-17 08:12:00,64.0,61.0,-100.00,WSW,240,4.0,6.0,89,0.00,,,-99.99,,2013-06-17 13:12:00,
2013-06-17 08:32:00,67.0,61.0,-100.00,WSW,245,4.0,6.0,82,0.00,,,-99.99,,2013-06-17 13:32:00,
2013-06-17 08:43:00,69.0,61.0,-100.00,WSW,240,3.0,5.0,77,0.00,,,-99.99,,2013-06-17 13:43:00,
2013-06-17 08:52:00,71.0,58.0,-100.00,NNW,345,2.0,4.0,64,0.00,,,-99.99,,2013-06-17 13:52:00,
2013-06-17 09:02:00,72.0,58.0,-100.00,North,-999,-999.0,-999.0,62,0.00,,,-99.99,,2013-06-17 14:02:00,
2013-06-17 09:12:00,72.0,58.0,-100.00,North,10,1.0,5.0,61,0.00,,,-99.99,,2013-06-17 14:12:00,
2013-06-17 09:22:00,73.0,59.0,-100.00,NNW,345,4.0,6.0,61,0.00,,,-99.99,,2013-06-17 14:22:00,
2013-06-17 09:34:00,73.0,58.0,-100.00,NNW,330,3.0,6.0,60,0.00,,,-99.99,,2013-06-17 14:34:00,
2013-06-17 09:43:00,74.0,59.0,-100.00,North,5,1.0,7.0,59,0.00,,,-99.99,,2013-06-17 14:43:00,
2013-06-17 10:22:00,77.0,60.0,-100.00,WNW,285,1.0,4.0,54,0.00,,,-99.99,,2013-06-17 15:22:00,
2013-06-17 10:52:00,80.0,60.0,-100.00,ENE,65,3.0,7.0,51,0.00,,,-99.99,,2013-06-17 15:52:00,
2013-06-17 11:02:00,79.0,60.0,-100.00,NW,325,3.0,7.0,50,0.00,,,-99.99,,2013-06-17 16:02:00,
2013-06-17 11:11:00,79.0,59.0,-100.00,NNW,345,5.0,9.0,50,0.00,,,-99.99,,2013-06-17 16:11:00,
2013-06-17 11:22:00,80.0,59.0,-100.00,NE,45,6.0,11.0,49,0.00,,,-99.99,,2013-06-17 16:22:00,
2013-06-17 11:33:00,80.0,59.0,-100.00,NE,45,3.0,10.0,49,0.00,,,-99.99,,2013-06-17 16:33:00,
2013-06-17 11:43:00,81.0,59.0,-100.00,NNE,25,9.0,12.0,47,0.00,,,-99.99,,2013-06-17 16:43:00,
2013-06-17 11:53:00,81.0,59.0,-100.00,NNE,15,7.0,12.0,48,0.00,,,-99.99,,2013-06-17 16:53:00,
2013-06-17 12:02:00,81.0,60.0,-100.00,NNW,340,8.0,12.0,48,0.00,,,-99.99,,2013-06-17 17:02:00,
2013-06-17 12:12:00,82.0,59.0,-100.00,NNE,25,7.0,11.0,46,0.00,,,-99.99,,2013-06-17 17:12:00,
2013-06-17 12:33:00,82.0,59.0,-100.00,NNW,335,4.0,11.0,45,0.00,,,-99.99,,2013-06-17 17:33:00,
2013-06-17 12:43:00,83.0,58.0,-100.00,NNE,20,6.0,10.0,42,0.00,,,-99.99,,2013-06-17 17:43:00,
2013-06-17 12:52:00,83.0,58.0,-100.00,North,5,7.0,12.0,42,0.00,,,-99.99,,2013-06-17 17:52:00,
2013-06-17 13:02:00,83.0,57.0,-100.00,NNE,20,6.0,14.0,40,0.00,,,-99.99,,2013-06-17 18:02:00,
2013-06-17 13:12:00,83.0,57.0,-100.00,NNE,20,6.0,14.0,40,0.00,,,-99.99,,2013-06-17 18:12:00,
2013-06-17 13:23:00,84.0,58.0,-100.00,NNE,15,7.0,12.0,40,0.00,,,-99.99,,2013-06-17 18:23:00,
2013-06-17 13:33:00,84.0,57.0,-100.00,NE,45,6.0,12.0,40,0.00,,,-99.99,,2013-06-17 18:33:00,
2013-06-17 13:43:00,84.0,57.0,-100.00,North,5,7.0,14.0,39,0.00,,,-99.99,,2013-06-17 18:43:00,
2013-06-17 13:53:00,85.0,57.0,-100.00,NNE,20,11.0,15.0,39,0.00,,,-99.99,,2013-06-17 18:53:00,
2013-06-17 14:02:00,84.0,57.0,-100.00,NNE,25,11.0,21.0,39,0.00,,,-99.99,,2013-06-17 19:02:00,
2013-06-17 14:11:00,84.0,57.0,-100.00,NNE,25,9.0,12.0,39,0.00,,,-99.99,,2013-06-17 19:11:00,
2013-06-17 14:22:00,84.0,56.0,-100.00,North,-999,-999.0,-999.0,38,-99.99,,,-99.99,,2013-06-17 19:22:00,
2013-06-17 14:33:00,84.0,56.0,-100.00,NNE,30,10.0,19.0,38,0.00,,,-99.99,,2013-06-17 19:33:00,
2013-06-17 14:43:00,85.0,56.0,-100.00,NNE,15,11.0,15.0,37,0.00,,,-99.99,,2013-06-17 19:43:00,
2013-06-17 14:53:00,85.0,56.0,-100.00,NNE,15,9.0,15.0,37,0.00,,,-99.99,,2013-06-17 19:53:00,
2013-06-17 15:11:00,86.0,56.0,-100.00,NNE,30,10.0,14.0,36,0.00,,,-99.99,,2013-06-17 20:11:00,
2013-06-17 15:34:00,85.0,55.0,-100.00,North,5,11.0,17.0,35,0.00,,,-99.99,,2013-06-17 20:34:00,
2013-06-17 15:43:00,86.0,56.0,-100.00,NNE,15,14.0,20.0,35,0.00,,,-99.99,,2013-06-17 20:43:00,
2013-06-17 15:52:00,85.0,56.0,-100.00,North,5,13.0,24.0,36,0.00,,,-99.99,,2013-06-17 20:52:00,
2013-06-17 16:01:00,86.0,56.0,-100.00,North,5,13.0,18.0,35,0.00,,,-99.99,,2013-06-17 21:01:00,
2013-06-17 16:12:00,85.0,55.0,-100.00,NNE,15,12.0,20.0,35,0.00,,,-99.99,,2013-06-17 21:12:00,
2013-06-17 16:22:00,85.0,56.0,-100.00,NNE,25,17.0,20.0,36,0.00,,,-99.99,,2013-06-17 21:22:00,
2013-06-17 16:33:00,85.0,56.0,-100.00,NNE,20,11.0,20.0,36,0.00,,,-99.99,,2013-06-17 21:33:00,
2013-06-17 16:52:00,85.0,54.0,-100.00,North,10,14.0,19.0,34,0.00,,,-99.99,,2013-06-17 21:52:00,
2013-06-17 17:22:00,85.0,54.0,-100.00,NNE,20,11.0,18.0,34,0.00,,,-99.99,,2013-06-17 22:22:00,
2013-06-17 17:33:00,85.0,54.0,-100.00,NNE,30,11.0,18.0,34,0.00,,,-99.99,,2013-06-17 22:33:00,
2013-06-17 17:53:00,84.0,54.0,-100.00,NNE,15,11.0,18.0,35,0.00,,,-99.99,,2013-06-17 22:53:00,
2013-06-17 18:02:00,84.0,54.0,-100.00,NNE,30,9.0,14.0,35,0.00,,,-99.99,,2013-06-17 23:02:00,
2013-06-17 18:11:00,84.0,54.0,-100.00,NNE,15,12.0,17.0,36,0.00,,,-99.99,,2013-06-17 23:11:00,
2013-06-17 18:22:00,84.0,54.0,-100.00,NNE,15,12.0,17.0,36,0.00,,,-99.99,,2013-06-17 23:22:00,
2013-06-17 18:32:00,83.0,54.0,-100.00,NNE,15,12.0,18.0,36,0.00,,,-99.99,,2013-06-17 23:32:00,
2013-06-17 18:42:00,81.0,53.0,-100.00,NNE,30,12.0,16.0,37,0.00,,,-99.99,,2013-06-17 23:42:00,
2013-06-17 18:52:00,81.0,52.0,-100.00,NE,35,11.0,17.0,37,0.00,,,-99.99,,2013-06-17 23:52:00,
2013-06-17 19:01:00,82.0,53.0,-100.00,NE,40,9.0,19.0,36,0.00,,,-99.99,,2013-06-18 00:01:00,
2013-06-17 19:12:00,82.0,53.0,-100.00,NNE,25,11.0,17.0,36,0.00,,,-99.99,,2013-06-18 00:12:00,
2013-06-17 19:22:00,82.0,53.0,-100.00,NNE,15,7.0,17.0,36,0.00,,,-99.99,,2013-06-18 00:22:00,
2013-06-17 19:33:00,82.0,53.0,-100.00,NNE,20,11.0,15.0,36,0.00,,,-99.99,,2013-06-18 00:33:00,
2013-06-17 19:43:00,81.0,53.0,-100.00,NE,40,11.0,17.0,36,0.00,,,-99.99,,2013-06-18 00:43:00,
2013-06-17 19:52:00,81.0,52.0,-100.00,NNE,25,11.0,17.0,36,0.00,,,-99.99,,2013-06-18 00:52:00,
2013-06-17 20:01:00,81.0,53.0,-100.00,NE,35,8.0,13.0,37,0.00,,,-99.99,,2013-06-18 01:01:00,
2013-06-17 20:11:00,80.0,52.0,-100.00,NNE,25,7.0,13.0,38,0.00,,,-99.99,,2013-06-18 01:11:00,
2013-06-17 20:23:00,80.0,52.0,-100.00,NNE,25,7.0,13.0,38,0.00,,,-99.99,,2013-06-18 01:23:00,
2013-06-17 20:34:00,79.0,52.0,-100.00,NNE,25,9.0,12.0,38,0.00,,,-99.99,,2013-06-18 01:34:00,
2013-06-17 20:53:00,77.0,53.0,-100.00,North,10,5.0,9.0,41,0.00,,,-99.99,,2013-06-18 01:53:00,
2013-06-17 21:02:00,76.0,52.0,-100.00,NNE,15,6.0,9.0,43,0.00,,,-99.99,,2013-06-18 02:02:00,
2013-06-17 21:11:00,75.0,52.0,-100.00,North,5,6.0,8.0,44,0.00,,,-99.99,,2013-06-18 02:11:00,
2013-06-17 21:22:00,72.0,52.0,-100.00,NNE,15,6.0,7.0,49,0.00,,,-99.99,,2013-06-18 02:22:00,
2013-06-17 21:34:00,72.0,52.0,-100.00,North,10,6.0,7.0,49,0.00,,,-99.99,,2013-06-18 02:34:00,
2013-06-17 21:43:00,71.0,53.0,-100.00,North,10,6.0,6.0,52,0.00,,,-99.99,,2013-06-18 02:43:00,
2013-06-17 21:53:00,71.0,53.0,-100.00,NE,35,3.0,6.0,54,0.00,,,-99.99,,2013-06-18 02:53:00,
2013-06-17 22:02:00,70.0,53.0,-100.00,North,10,4.0,6.0,55,0.00,,,-99.99,,2013-06-18 03:02:00,
2013-06-17 22:12:00,70.0,54.0,-100.00,NNE,25,4.0,5.0,56,0.00,,,-99.99,,2013-06-18 03:12:00,
2013-06-17 22:23:00,70.0,54.0,-100.00,NNE,20,4.0,5.0,56,0.00,,,-99.99,,2013-06-18 03:23:00,
2013-06-17 22:34:00,69.0,54.0,-100.00,NNE,25,3.0,6.0,58,0.00,,,-99.99,,2013-06-18 03:34:00,
2013-06-17 22:42:00,69.0,54.0,-100.00,NNE,20,3.0,4.0,59,0.00,,,-99.99,,2013-06-18 03:42:00,
2013-06-17 22:53:00,68.0,54.0,-100.00,NNE,15,4.0,5.0,62,0.00,,,-99.99,,2013-06-18 03:53:00,
2013-06-17 23:02:00,67.0,55.0,-100.00,North,5,4.0,5.0,64,0.00,,,-99.99,,2013-06-18 04:02:00,
2013-06-17 23:12:00,67.0,56.0,-100.00,NNW,345,1.0,6.0,67,0.00,,,-99.99,,2013-06-18 04:12:00,
2013-06-17 23:34:00,65.0,58.0,-100.00,SE,125,0.0,2.0,76,0.00,,,-99.99,,2013-06-18 04:34:00,
2013-06-17 23:43:00,66.0,58.0,-100.00,North,-999,-999.0,-999.0,76,0.00,,,-99.99,,2013-06-18 04:43:00,
2013-06-17 23:53:00,65.0,58.0,-100.00,North,5,2.0,4.0,77,0.00,,,-99.99,,2013-06-18 04:53:00,